createdAt,value
2019-01-08T01:01:11.546Z,0.00
2019-01-08T01:02:11.531Z,0.00
2019-01-08T01:03:11.524Z,0.00
2019-01-08T01:04:11.516Z,0.00
2019-01-08T01:05:11.502Z,0.00
2019-01-08T01:06:11.503Z,0.00
2019-01-08T01:07:11.552Z,0.00
2019-01-08T01:08:11.480Z,0.00
2019-01-08T01:09:11.481Z,0.00
2019-01-08T01:10:11.450Z,0.00
2019-01-08T01:11:11.435Z,0.00
2019-01-08T01:12:11.433Z,0.00
2019-01-08T01:13:11.488Z,0.00
2019-01-08T01:14:11.399Z,0.00
2019-01-08T01:15:11.397Z,0.00
2019-01-08T01:16:11.383Z,0.00
2019-01-08T01:17:11.365Z,0.00
2019-01-08T01:18:11.365Z,0.00
2019-01-08T01:19:11.351Z,0.00
2019-01-08T01:20:11.334Z,0.00
2019-01-08T01:21:11.332Z,0.00
2019-01-08T01:22:11.312Z,0.00
2019-01-08T01:23:11.316Z,0.00
2019-01-08T01:24:11.291Z,0.00
2019-01-08T01:25:11.281Z,0.00
2019-01-08T01:26:11.310Z,0.00
2019-01-08T01:27:11.267Z,0.00
2019-01-08T01:28:11.254Z,0.00
2019-01-08T01:29:11.236Z,0.00
2019-01-08T01:30:11.231Z,0.00
2019-01-08T01:31:11.223Z,0.00
2019-01-08T01:32:11.205Z,0.00
2019-01-08T01:33:11.188Z,0.00
2019-01-08T01:34:11.180Z,0.00
2019-01-08T01:35:11.180Z,0.00
2019-01-08T01:36:11.159Z,0.00
2019-01-08T01:37:11.149Z,0.00
2019-01-08T01:38:11.133Z,0.00
2019-01-08T01:39:11.130Z,0.00
2019-01-08T01:40:11.112Z,0.00
2019-01-08T01:41:11.140Z,0.00
2019-01-08T01:42:11.113Z,0.00
2019-01-08T01:43:11.126Z,0.00
2019-01-08T01:44:11.098Z,0.00
2019-01-08T01:45:11.082Z,0.00
2019-01-08T01:46:11.078Z,0.00
2019-01-08T01:47:11.082Z,0.00
2019-01-08T01:48:11.074Z,0.00
2019-01-08T01:49:11.045Z,0.00
2019-01-08T01:50:11.043Z,0.00
2019-01-08T01:51:10.992Z,0.00
2019-01-08T01:52:11.020Z,0.00
2019-01-08T01:53:11.003Z,0.00
2019-01-08T01:54:10.977Z,0.00
2019-01-08T01:55:10.987Z,0.00
2019-01-08T01:56:10.964Z,0.00
2019-01-08T01:57:10.951Z,0.00
2019-01-08T01:58:10.938Z,0.00
2019-01-08T01:59:10.996Z,0.00
2019-01-08T02:00:10.922Z,0.00
2019-01-08T02:01:10.913Z,0.00
2019-01-08T02:02:10.888Z,0.00
2019-01-08T02:03:10.890Z,0.00
2019-01-08T02:04:10.866Z,0.00
2019-01-08T02:05:10.998Z,0.00
2019-01-08T02:06:10.848Z,0.00
2019-01-08T02:07:10.860Z,0.00
2019-01-08T02:08:10.835Z,0.00
2019-01-08T02:09:10.832Z,0.00
2019-01-08T02:10:10.821Z,0.00
2019-01-08T02:11:10.801Z,0.00
2019-01-08T02:12:10.920Z,0.00
2019-01-08T02:13:10.779Z,0.00
2019-01-08T02:14:10.745Z,0.00
2019-01-08T02:15:10.765Z,0.00
2019-01-08T02:16:10.738Z,0.00
2019-01-08T02:17:10.721Z,0.00
2019-01-08T02:18:10.709Z,0.00
2019-01-08T02:19:10.692Z,0.00
2019-01-08T02:20:10.720Z,0.00
2019-01-08T02:21:10.685Z,0.00
2019-01-08T02:22:10.657Z,0.00
2019-01-08T02:23:10.666Z,0.00
2019-01-08T02:24:10.638Z,0.00
2019-01-08T02:25:10.650Z,0.00
2019-01-08T02:26:10.635Z,0.00
2019-01-08T02:27:10.702Z,0.00
2019-01-08T02:28:10.603Z,0.00
2019-01-08T02:29:16.469Z,0.00
2019-01-08T02:30:35.685Z,0.00
2019-01-08T02:31:35.643Z,0.00
2019-01-08T02:32:35.672Z,0.00
2019-01-08T02:33:35.655Z,0.00
2019-01-08T02:34:35.629Z,0.00
2019-01-08T02:35:35.676Z,0.00
2019-01-08T02:36:35.629Z,0.00
2019-01-08T02:37:35.599Z,0.00
2019-01-08T02:38:35.581Z,0.00
2019-01-08T02:39:35.579Z,0.00
2019-01-08T02:40:35.568Z,0.00
2019-01-08T02:41:35.893Z,0.00
2019-01-08T02:42:35.524Z,0.00
2019-01-08T02:43:35.558Z,0.00
2019-01-08T02:44:35.614Z,0.00
2019-01-08T02:45:35.500Z,0.00
2019-01-08T02:46:35.709Z,0.00
2019-01-08T02:47:35.478Z,0.00
2019-01-08T02:48:35.459Z,0.00
2019-01-08T02:49:35.446Z,0.00
2019-01-08T02:50:35.455Z,0.00
2019-01-08T02:51:35.487Z,0.00
2019-01-08T02:52:35.414Z,0.00
2019-01-08T02:53:35.404Z,0.00
2019-01-08T02:54:35.432Z,0.00
2019-01-08T02:55:35.419Z,0.00
2019-01-08T02:56:35.367Z,0.00
2019-01-08T02:57:35.361Z,0.00
2019-01-08T02:58:35.356Z,0.00
2019-01-08T02:59:35.439Z,0.00
2019-01-08T03:00:35.382Z,0.00
2019-01-08T03:01:35.323Z,0.00
2019-01-08T03:02:35.325Z,0.00
2019-01-08T03:03:35.299Z,0.00
2019-01-08T03:04:35.313Z,0.00
2019-01-08T03:05:35.305Z,0.00
2019-01-08T03:06:35.294Z,0.00
2019-01-08T03:07:35.257Z,0.00
2019-01-08T03:08:35.256Z,0.00
2019-01-08T03:09:35.322Z,0.00
2019-01-08T03:10:35.226Z,0.00
2019-01-08T03:11:35.234Z,0.00
2019-01-08T03:12:35.223Z,0.00
2019-01-08T03:13:35.236Z,0.00
2019-01-08T03:14:35.187Z,0.00
2019-01-08T03:15:35.316Z,0.00
2019-01-08T03:16:35.174Z,0.00
2019-01-08T03:17:35.208Z,0.00
2019-01-08T03:18:35.137Z,0.00
2019-01-08T03:19:35.150Z,0.00
2019-01-08T03:20:35.104Z,0.00
2019-01-08T03:21:35.121Z,0.00
2019-01-08T03:22:35.154Z,0.00
2019-01-08T03:23:35.083Z,0.00
2019-01-08T03:24:35.076Z,0.00
2019-01-08T03:25:35.126Z,0.00
2019-01-08T03:26:35.048Z,0.00
2019-01-08T03:27:35.062Z,0.00
2019-01-08T03:28:35.032Z,0.00
2019-01-08T03:29:35.016Z,0.00
2019-01-08T03:30:35.041Z,0.00
2019-01-08T03:31:35.065Z,0.00
2019-01-08T03:32:34.983Z,0.00
2019-01-08T03:33:34.982Z,0.00
2019-01-08T03:34:34.952Z,0.00
2019-01-08T03:35:34.964Z,0.00
2019-01-08T03:36:35.034Z,0.00
2019-01-08T03:37:34.964Z,0.00
2019-01-08T03:38:34.993Z,0.00
2019-01-08T03:39:34.898Z,0.00
2019-01-08T03:40:34.934Z,0.00
2019-01-08T03:41:34.888Z,0.00
2019-01-08T03:42:34.873Z,0.00
2019-01-08T03:43:34.858Z,0.00
2019-01-08T03:44:34.904Z,0.00
2019-01-08T03:45:34.867Z,0.00
2019-01-08T03:46:34.848Z,0.00
2019-01-08T03:47:34.832Z,0.00
2019-01-08T03:48:34.887Z,0.00
2019-01-08T03:49:34.794Z,0.00
2019-01-08T03:50:34.781Z,0.00
2019-01-08T03:51:34.779Z,0.00
2019-01-08T03:52:34.759Z,0.00
2019-01-08T03:53:34.755Z,0.00
2019-01-08T03:54:34.751Z,0.00
2019-01-08T03:55:34.724Z,0.00
2019-01-08T03:56:34.722Z,0.00
2019-01-08T03:57:34.704Z,0.00
2019-01-08T03:58:34.709Z,0.00
2019-01-08T03:59:41.913Z,0.00
2019-01-08T04:00:59.691Z,0.00
2019-01-08T04:01:59.652Z,0.00
2019-01-08T04:02:59.639Z,0.00
2019-01-08T04:03:59.627Z,0.00
2019-01-08T04:04:59.613Z,0.00
2019-01-08T04:05:59.612Z,0.00
2019-01-08T04:06:59.597Z,0.00
2019-01-08T04:07:59.596Z,0.00
2019-01-08T04:08:59.569Z,0.00
2019-01-08T04:09:59.579Z,0.00
2019-01-08T04:10:59.546Z,0.00
2019-01-08T04:11:59.542Z,0.00
2019-01-08T04:12:59.552Z,0.00
2019-01-08T04:13:59.567Z,0.00
2019-01-08T04:14:59.512Z,0.00
2019-01-08T04:16:00.362Z,0.00
2019-01-08T04:16:59.485Z,0.00
2019-01-08T04:17:59.488Z,0.00
2019-01-08T04:18:59.506Z,0.00
2019-01-08T04:19:59.446Z,0.00
2019-01-08T04:20:59.451Z,0.00
2019-01-08T04:21:59.435Z,0.00
2019-01-08T04:22:59.423Z,0.00
2019-01-08T04:23:59.537Z,0.00
2019-01-08T04:24:59.393Z,0.00
2019-01-08T04:25:59.388Z,0.00
2019-01-08T04:26:59.383Z,0.00
2019-01-08T04:27:59.367Z,0.00
2019-01-08T04:28:59.362Z,0.00
2019-01-08T04:29:59.338Z,0.00
2019-01-08T04:30:59.355Z,0.00
2019-01-08T04:31:59.423Z,0.00
2019-01-08T04:32:59.331Z,0.00
2019-01-08T04:33:59.298Z,0.00
2019-01-08T04:35:00.298Z,0.00
2019-01-08T04:35:59.292Z,0.00
2019-01-08T04:36:59.271Z,0.00
2019-01-08T04:37:59.334Z,0.00
2019-01-08T04:38:59.242Z,0.00
2019-01-08T04:39:59.234Z,0.00
2019-01-08T04:40:59.254Z,0.00
2019-01-08T04:41:59.245Z,0.00
2019-01-08T04:42:59.205Z,0.00
2019-01-08T04:43:59.189Z,0.00
2019-01-08T04:44:59.177Z,0.00
2019-01-08T04:45:59.189Z,0.00
2019-01-08T04:46:59.204Z,0.00
2019-01-08T04:47:59.148Z,0.00
2019-01-08T04:48:59.158Z,0.00
2019-01-08T04:49:59.131Z,0.00
2019-01-08T04:50:59.111Z,0.00
2019-01-08T04:51:59.143Z,0.00
2019-01-08T04:52:59.105Z,0.00
2019-01-08T04:53:59.080Z,0.00
2019-01-08T04:54:59.077Z,0.00
2019-01-08T04:55:59.081Z,0.00
2019-01-08T04:56:59.051Z,0.00
2019-01-08T04:57:59.035Z,0.00
2019-01-08T04:58:59.034Z,0.00
2019-01-08T04:59:59.343Z,0.00
2019-01-08T05:00:59.000Z,0.00
2019-01-08T05:01:59.005Z,0.00
2019-01-08T05:02:58.981Z,0.00
2019-01-08T05:03:58.974Z,0.00
2019-01-08T05:04:59.036Z,0.00
2019-01-08T05:05:58.962Z,0.00
2019-01-08T05:06:58.962Z,0.00
2019-01-08T05:07:58.932Z,0.00
2019-01-08T05:08:58.986Z,0.00
2019-01-08T05:09:58.916Z,0.00
2019-01-08T05:10:58.892Z,0.00
2019-01-08T05:11:58.968Z,0.00
2019-01-08T05:12:58.946Z,0.00
2019-01-08T05:13:58.860Z,0.00
2019-01-08T05:14:58.866Z,0.00
2019-01-08T05:15:58.856Z,0.00
2019-01-08T05:16:58.841Z,0.00
2019-01-08T05:17:58.821Z,0.00
2019-01-08T05:18:58.809Z,0.00
2019-01-08T05:19:58.797Z,0.00
2019-01-08T05:20:58.803Z,0.00
2019-01-08T05:21:58.787Z,0.00
2019-01-08T05:22:58.789Z,0.00
2019-01-08T05:23:58.783Z,0.00
2019-01-08T05:24:58.768Z,0.00
2019-01-08T05:25:58.732Z,0.00
2019-01-08T05:26:58.728Z,0.00
2019-01-08T05:27:58.739Z,0.00
2019-01-08T05:28:58.713Z,0.00
2019-01-08T05:30:07.517Z,0.00
2019-01-08T05:31:23.677Z,0.00
2019-01-08T05:32:23.656Z,0.00
2019-01-08T05:33:23.650Z,0.00
2019-01-08T05:34:23.627Z,0.00
2019-01-08T05:35:23.696Z,0.00
2019-01-08T05:36:23.626Z,0.00
2019-01-08T05:37:23.602Z,0.00
2019-01-08T05:38:23.587Z,0.00
2019-01-08T05:39:23.587Z,0.00
2019-01-08T05:40:23.566Z,0.00
2019-01-08T05:41:23.571Z,0.00
2019-01-08T05:42:23.568Z,0.00
2019-01-08T05:43:23.542Z,0.00
2019-01-08T05:44:23.522Z,0.00
2019-01-08T05:45:23.508Z,0.00
2019-01-08T05:46:23.501Z,0.00
2019-01-08T05:47:23.491Z,0.00
2019-01-08T05:48:23.481Z,0.00
2019-01-08T05:49:23.477Z,0.00
2019-01-08T05:50:23.474Z,0.00
2019-01-08T05:51:23.459Z,0.00
2019-01-08T05:52:23.440Z,0.00
2019-01-08T05:53:23.425Z,0.00
2019-01-08T05:54:23.405Z,0.00
2019-01-08T05:55:23.399Z,0.00
2019-01-08T05:56:23.395Z,0.00
2019-01-08T05:57:23.382Z,0.00
2019-01-08T05:58:23.408Z,0.00
2019-01-08T05:59:23.357Z,0.00
2019-01-08T06:00:23.345Z,0.00
2019-01-08T06:01:23.335Z,0.00
2019-01-08T06:02:23.348Z,0.00
2019-01-08T06:03:23.318Z,0.00
2019-01-08T06:04:23.312Z,0.00
2019-01-08T06:05:23.301Z,0.00
2019-01-08T06:06:23.277Z,0.00
2019-01-08T06:07:23.277Z,0.00
2019-01-08T06:08:23.296Z,0.00
2019-01-08T06:09:23.268Z,0.00
2019-01-08T06:10:23.240Z,0.00
2019-01-08T06:11:23.309Z,0.00
2019-01-08T06:12:23.223Z,0.00
2019-01-08T06:13:23.202Z,0.00
2019-01-08T06:14:23.188Z,0.00
2019-01-08T06:15:26.075Z,0.00
2019-01-08T06:16:23.177Z,0.00
2019-01-08T06:17:23.246Z,0.00
2019-01-08T06:18:23.180Z,0.00
2019-01-08T06:19:23.131Z,0.00
2019-01-08T06:20:23.156Z,0.00
2019-01-08T06:21:23.542Z,0.00
2019-01-08T06:22:23.122Z,0.00
2019-01-08T06:23:23.232Z,0.00
2019-01-08T06:24:23.081Z,0.00
2019-01-08T06:25:23.092Z,0.00
2019-01-08T06:26:23.083Z,0.00
2019-01-08T06:27:23.062Z,0.00
2019-01-08T06:28:23.048Z,0.00
2019-01-08T06:29:23.061Z,0.00
2019-01-08T06:30:24.910Z,0.00
2019-01-08T06:31:23.057Z,0.00
2019-01-08T06:32:23.037Z,0.00
2019-01-08T06:33:23.026Z,0.00
2019-01-08T06:34:23.026Z,0.00
2019-01-08T06:35:23.006Z,0.00
2019-01-08T06:36:22.988Z,0.00
2019-01-08T06:37:22.978Z,0.00
2019-01-08T06:38:22.971Z,0.00
2019-01-08T06:39:22.975Z,0.00
2019-01-08T06:40:22.907Z,0.00
2019-01-08T06:41:22.937Z,0.00
2019-01-08T06:42:22.940Z,0.00
2019-01-08T06:43:22.879Z,0.00
2019-01-08T06:44:22.887Z,0.00
2019-01-08T06:45:29.488Z,0.00
2019-01-08T06:46:47.964Z,0.00
2019-01-08T06:47:47.958Z,0.00
2019-01-08T06:48:48.450Z,0.00
2019-01-08T06:49:47.941Z,0.00
2019-01-08T06:50:55.828Z,0.00
2019-01-08T06:52:12.703Z,0.00
2019-01-08T06:53:12.711Z,0.00
2019-01-08T06:54:12.689Z,0.00
2019-01-08T06:55:12.674Z,0.00
2019-01-08T06:56:14.624Z,0.00
2019-01-08T06:57:12.650Z,0.00
2019-01-08T06:58:12.652Z,0.00
2019-01-08T06:59:12.651Z,0.00
2019-01-08T07:00:13.326Z,0.00
2019-01-08T07:01:12.612Z,0.00
2019-01-08T07:02:12.599Z,0.00
2019-01-08T07:03:12.588Z,0.00
2019-01-08T07:04:14.249Z,0.00
2019-01-08T07:05:12.610Z,0.00
2019-01-08T07:06:12.607Z,0.00
2019-01-08T07:07:12.659Z,0.00
2019-01-08T07:08:12.574Z,0.00
2019-01-08T07:09:12.633Z,0.00
2019-01-08T07:10:12.563Z,0.00
2019-01-08T07:11:12.501Z,0.00
2019-01-08T07:12:12.496Z,0.00
2019-01-08T07:13:12.499Z,0.00
2019-01-08T07:14:12.464Z,0.00
2019-01-08T07:15:24.343Z,0.00
2019-01-08T07:16:37.787Z,0.00
2019-01-08T07:17:37.789Z,0.00
2019-01-08T07:18:37.771Z,0.00
2019-01-08T07:19:37.744Z,0.00
2019-01-08T07:20:37.803Z,0.00
2019-01-08T07:21:37.732Z,5.62
2019-01-08T07:22:37.741Z,5.62
2019-01-08T07:23:37.700Z,5.62
2019-01-08T07:24:38.703Z,5.62
2019-01-08T07:25:42.126Z,5.62
2019-01-08T07:26:37.671Z,5.62
2019-01-08T07:27:37.693Z,5.62
2019-01-08T07:28:40.670Z,5.62
2019-01-08T07:29:37.650Z,5.62
2019-01-08T07:30:41.687Z,5.62
2019-01-08T07:31:38.122Z,5.62
2019-01-08T07:32:37.602Z,5.62
2019-01-08T07:33:37.608Z,5.62
2019-01-08T07:34:38.594Z,5.62
2019-01-08T07:35:37.629Z,5.62
2019-01-08T07:36:37.578Z,5.62
2019-01-08T07:37:37.570Z,5.62
2019-01-08T07:38:37.727Z,5.62
2019-01-08T07:39:37.531Z,5.62
2019-01-08T07:40:41.460Z,5.62
2019-01-08T07:41:37.519Z,5.62
2019-01-08T07:42:37.527Z,5.62
2019-01-08T07:43:37.565Z,5.62
2019-01-08T07:44:37.469Z,11.25
2019-01-08T07:45:37.460Z,11.25
2019-01-08T07:46:37.501Z,11.25
2019-01-08T07:47:37.459Z,11.25
2019-01-08T07:48:37.493Z,11.25
2019-01-08T07:49:37.423Z,11.25
2019-01-08T07:50:37.412Z,11.25
2019-01-08T07:51:37.397Z,11.25
2019-01-08T07:52:37.397Z,11.25
2019-01-08T07:53:37.374Z,11.25
2019-01-08T07:54:37.365Z,11.25
2019-01-08T07:55:37.349Z,16.87
2019-01-08T07:56:37.346Z,22.50
2019-01-08T07:57:37.348Z,28.12
2019-01-08T07:58:37.423Z,28.12
2019-01-08T07:59:38.309Z,28.12
2019-01-08T08:00:37.353Z,28.12
2019-01-08T08:01:37.312Z,28.12
2019-01-08T08:02:37.300Z,28.12
2019-01-08T08:03:37.276Z,28.12
2019-01-08T08:04:37.263Z,28.12
2019-01-08T08:05:37.365Z,28.12
2019-01-08T08:06:37.241Z,28.12
2019-01-08T08:07:37.247Z,33.75
2019-01-08T08:08:37.235Z,33.75
2019-01-08T08:09:37.205Z,33.75
2019-01-08T08:10:37.198Z,28.12
2019-01-08T08:11:37.185Z,39.37
2019-01-08T08:12:37.187Z,39.37
2019-01-08T08:13:37.184Z,39.37
2019-01-08T08:14:37.164Z,45.00
2019-01-08T08:15:37.132Z,50.62
2019-01-08T08:16:37.174Z,33.75
2019-01-08T08:17:37.113Z,33.75
2019-01-08T08:18:37.119Z,39.37
2019-01-08T08:19:37.101Z,28.12
2019-01-08T08:20:37.146Z,33.75
2019-01-08T08:21:37.125Z,45.00
2019-01-08T08:22:37.092Z,50.62
2019-01-08T08:23:37.051Z,39.37
2019-01-08T08:24:37.038Z,33.75
2019-01-08T08:25:37.044Z,39.37
2019-01-08T08:26:37.070Z,33.75
2019-01-08T08:27:37.010Z,22.50
2019-01-08T08:28:37.013Z,28.12
2019-01-08T08:29:36.985Z,33.75
2019-01-08T08:30:36.985Z,33.75
2019-01-08T08:31:36.974Z,22.50
2019-01-08T08:32:37.003Z,16.87
2019-01-08T08:33:36.942Z,28.12
2019-01-08T08:34:36.941Z,33.75
2019-01-08T08:35:36.921Z,50.62
2019-01-08T08:36:36.906Z,84.37
2019-01-08T08:37:36.901Z,84.37
2019-01-08T08:38:36.902Z,84.37
2019-01-08T08:39:36.884Z,90.00
2019-01-08T08:40:36.869Z,95.62
2019-01-08T08:41:36.843Z,101.25
2019-01-08T08:42:36.842Z,106.87
2019-01-08T08:43:37.008Z,101.25
2019-01-08T08:44:36.838Z,95.62
2019-01-08T08:45:36.820Z,95.62
2019-01-08T08:46:36.790Z,90.00
2019-01-08T08:47:36.817Z,90.00
2019-01-08T08:48:36.786Z,90.00
2019-01-08T08:49:36.766Z,90.00
2019-01-08T08:50:36.787Z,101.25
2019-01-08T08:51:37.756Z,101.25
2019-01-08T08:52:36.747Z,101.25
2019-01-08T08:53:36.714Z,106.87
2019-01-08T08:54:36.844Z,112.50
2019-01-08T08:55:36.693Z,123.75
2019-01-08T08:56:36.754Z,135.00
2019-01-08T08:57:36.723Z,140.62
2019-01-08T08:58:36.692Z,146.25
2019-01-08T08:59:36.658Z,157.50
2019-01-08T09:00:36.664Z,163.12
2019-01-08T09:01:36.628Z,151.87
2019-01-08T09:02:36.664Z,157.50
2019-01-08T09:03:36.607Z,157.50
2019-01-08T09:04:36.622Z,168.75
2019-01-08T09:05:36.589Z,185.62
2019-01-08T09:06:36.585Z,163.12
2019-01-08T09:07:36.569Z,163.12
2019-01-08T09:08:36.550Z,163.12
2019-01-08T09:09:36.571Z,151.87
2019-01-08T09:10:36.539Z,146.25
2019-01-08T09:11:36.749Z,151.87
2019-01-08T09:12:36.513Z,157.50
2019-01-08T09:13:36.496Z,168.75
2019-01-08T09:14:36.498Z,174.37
2019-01-08T09:15:36.483Z,191.25
2019-01-08T09:16:36.480Z,191.25
2019-01-08T09:17:36.458Z,174.37
2019-01-08T09:18:36.504Z,174.37
2019-01-08T09:19:36.453Z,196.87
2019-01-08T09:20:36.443Z,196.87
2019-01-08T09:21:36.421Z,202.50
2019-01-08T09:22:36.399Z,202.50
2019-01-08T09:23:36.396Z,185.62
2019-01-08T09:24:36.404Z,168.75
2019-01-08T09:25:36.378Z,151.87
2019-01-08T09:26:36.356Z,140.62
2019-01-08T09:27:36.482Z,146.25
2019-01-08T09:28:36.334Z,185.62
2019-01-08T09:29:36.320Z,174.37
2019-01-08T09:30:36.326Z,191.25
2019-01-08T09:31:36.303Z,196.87
2019-01-08T09:32:36.317Z,174.37
2019-01-08T09:33:36.289Z,196.87
2019-01-08T09:34:36.280Z,151.87
2019-01-08T09:35:36.269Z,146.25
2019-01-08T09:36:36.254Z,180.00
2019-01-08T09:37:36.261Z,157.50
2019-01-08T09:38:36.333Z,135.00
2019-01-08T09:39:36.217Z,146.25
2019-01-08T09:40:36.211Z,140.62
2019-01-08T09:41:36.199Z,180.00
2019-01-08T09:42:36.228Z,129.37
2019-01-08T09:43:36.173Z,123.75
2019-01-08T09:44:36.163Z,118.12
2019-01-08T09:45:36.157Z,112.50
2019-01-08T09:46:36.141Z,90.00
2019-01-08T09:47:36.126Z,78.75
2019-01-08T09:48:36.145Z,78.75
2019-01-08T09:49:36.130Z,101.25
2019-01-08T09:50:36.128Z,106.87
2019-01-08T09:51:36.093Z,129.37
2019-01-08T09:52:36.075Z,140.62
2019-01-08T09:53:36.070Z,135.00
2019-01-08T09:54:36.048Z,140.62
2019-01-08T09:55:36.042Z,135.00
2019-01-08T09:56:36.026Z,129.37
2019-01-08T09:57:36.033Z,101.25
2019-01-08T09:58:37.487Z,95.62
2019-01-08T09:59:36.011Z,106.87
2019-01-08T10:00:36.031Z,123.75
2019-01-08T10:01:35.976Z,123.75
2019-01-08T10:03:39.436Z,118.12
2019-01-08T10:04:39.457Z,118.12
2019-01-08T10:05:39.423Z,151.87
2019-01-08T10:06:39.435Z,123.75
2019-01-08T10:07:39.402Z,118.12
2019-01-08T10:08:39.382Z,140.62
2019-01-08T10:09:39.377Z,140.62
2019-01-08T10:10:39.357Z,129.37
2019-01-08T10:11:39.360Z,112.50
2019-01-08T10:12:39.332Z,101.25
2019-01-08T10:13:39.432Z,95.62
2019-01-08T10:14:39.321Z,73.12
2019-01-08T10:15:39.419Z,84.37
2019-01-08T10:16:39.292Z,101.25
2019-01-08T10:17:55.807Z,106.87
2019-01-08T10:19:04.766Z,129.37
2019-01-08T10:20:04.752Z,146.25
2019-01-08T10:21:04.743Z,146.25
2019-01-08T10:22:04.716Z,118.12
2019-01-08T10:23:10.066Z,151.87
2019-01-08T10:24:29.848Z,112.50
2019-01-08T10:25:29.829Z,146.25
2019-01-08T10:26:29.835Z,163.12
2019-01-08T10:27:29.813Z,185.62
2019-01-08T10:28:29.804Z,174.37
2019-01-08T10:29:29.785Z,174.37
2019-01-08T10:30:30.595Z,129.37
2019-01-08T10:31:32.607Z,106.87
2019-01-08T10:32:29.795Z,123.75
2019-01-08T10:33:29.744Z,112.50
2019-01-08T10:34:29.750Z,112.50
2019-01-08T10:35:29.753Z,101.25
2019-01-08T10:36:29.702Z,84.37
2019-01-08T10:37:29.734Z,73.12
2019-01-08T10:38:29.716Z,67.50
2019-01-08T10:39:29.682Z,84.37
2019-01-08T10:40:29.663Z,135.00
2019-01-08T10:41:29.654Z,174.37
2019-01-08T10:42:29.634Z,230.62
2019-01-08T10:43:29.643Z,275.62
2019-01-08T10:44:29.621Z,258.75
2019-01-08T10:45:31.003Z,270.00
2019-01-08T10:46:37.228Z,225.00
